Time;durP1;ratioP1;P1;durP2;ratioP2;P2;SDS_P1;SDS_P2;PMS_P1;PMS_P2;Temp;Humidity;BMP_temperature;BMP_pressure;BME280_temperature;BME280_humidity;BME280_pressure;Samples;Min_cycle;Max_cycle;Signal;HPM_P1;HPM_P2
2022/06/10 00:00:50;;;;;;;18.55;7.68;;;;;;;16.30;100.00;96172.28;4744911;30;20060;-56
2022/06/10 00:03:19;;;;;;;9.07;6.70;;;;;;;16.31;100.00;96179.44;4744942;30;20499;-59
2022/06/10 00:05:48;;;;;;;9.40;6.32;;;;;;;16.17;100.00;96179.69;4728576;30;20521;-58
2022/06/10 00:08:21;;;;;;;9.63;6.32;;;;;;;16.19;100.00;96177.28;4745025;30;20068;-57
2022/06/10 00:10:51;;;;;;;10.82;6.85;;;;;;;16.22;100.00;96182.00;4749132;30;20477;-56
2022/06/10 00:13:21;;;;;;;9.93;7.00;;;;;;;15.92;100.00;96129.09;4744819;30;20064;-58
2022/06/10 00:15:49;;;;;;;14.95;6.82;;;;;;;15.50;100.00;96090.78;4744900;30;20087;-56
2022/06/10 00:18:17;;;;;;;13.52;6.90;;;;;;;15.92;100.00;96168.19;4744897;30;20083;-56
2022/06/10 00:20:45;;;;;;;10.32;7.35;;;;;;;16.03;100.00;96179.97;4744564;30;20064;-56
2022/06/10 00:23:12;;;;;;;15.65;7.78;;;;;;;16.00;100.00;96161.25;4744855;30;20440;-57
2022/06/10 00:25:40;;;;;;;12.68;7.35;;;;;;;16.10;100.00;96168.66;4736510;30;20075;-58
2022/06/10 00:28:07;;;;;;;12.50;7.90;;;;;;;16.16;100.00;96161.38;4741349;30;20425;-56
2022/06/10 00:30:35;;;;;;;10.15;7.50;;;;;;;16.15;100.00;96170.97;4744390;30;20448;-56
2022/06/10 00:33:02;;;;;;;12.60;8.43;;;;;;;16.30;100.00;96166.69;4744738;30;20552;-57
2022/06/10 00:35:30;;;;;;;9.38;7.25;;;;;;;16.06;100.00;96123.22;4743037;30;20898;-56
2022/06/10 00:37:58;;;;;;;10.30;7.88;;;;;;;16.14;100.00;96152.63;4757528;30;20570;-56
2022/06/10 00:40:28;;;;;;;16.42;7.32;;;;;;;16.30;100.00;96160.28;4744344;30;20721;-57
2022/06/10 00:42:56;;;;;;;10.40;8.15;;;;;;;16.09;100.00;96136.34;4742760;30;20071;-55
2022/06/10 00:45:45;;;;;;;15.73;8.27;;;;;;;16.30;100.00;96161.09;4743707;30;20633;-57
2022/06/10 00:48:15;;;;;;;15.18;7.57;;;;;;;16.21;100.00;96163.66;4742870;30;20554;-56
2022/06/10 00:50:43;;;;;;;10.73;7.93;;;;;;;16.23;100.00;96150.03;4744299;30;20284;-57
2022/06/10 00:53:14;;;;;;;14.43;7.05;;;;;;;15.97;100.00;96114.63;4744121;30;20525;-56
2022/06/10 00:55:43;;;;;;;9.85;6.85;;;;;;;16.24;100.00;96146.03;4743795;30;20067;-56
2022/06/10 00:58:24;;;;;;;9.90;7.57;;;;;;;15.57;100.00;96043.19;4744131;30;20122;-56
2022/06/10 01:00:51;;;;;;;12.32;6.32;;;;;;;16.19;100.00;96149.34;4743971;30;20064;-56
2022/06/10 01:03:18;;;;;;;12.25;7.88;;;;;;;16.05;100.00;96144.03;4744028;30;20068;-59
2022/06/10 01:05:45;;;;;;;10.27;7.47;;;;;;;16.04;100.00;96150.84;4727849;30;20060;-59
2022/06/10 01:08:15;;;;;;;11.63;7.00;;;;;;;16.03;100.00;96145.66;4743685;30;20071;-57
2022/06/10 01:11:28;;;;;;;8.55;6.50;;;;;;;16.05;100.00;96155.19;4743735;30;20477;-57
2022/06/10 01:14:19;;;;;;;9.30;6.22;;;;;;;16.01;100.00;96150.88;4744067;30;20121;-56
2022/06/10 01:16:55;;;;;;;10.70;7.25;;;;;;;16.03;100.00;96154.81;4743479;30;20068;-56
2022/06/10 01:19:33;;;;;;;10.25;7.95;;;;;;;15.94;100.00;96160.19;4743833;30;20421;-56
2022/06/10 01:22:23;;;;;;;14.40;6.95;;;;;;;15.80;100.00;96149.28;4743635;30;20075;-56
2022/06/10 01:25:21;;;;;;;14.90;7.55;;;;;;;15.84;100.00;96152.78;4744051;30;20068;-56
2022/06/10 01:27:59;;;;;;;11.75;7.45;;;;;;;15.94;100.00;96154.59;4743953;30;20084;-57
2022/06/10 01:31:02;;;;;;;10.38;7.40;;;;;;;15.97;100.00;96159.34;4743342;30;20064;-57
2022/06/10 01:34:00;;;;;;;11.30;7.68;;;;;;;15.88;100.00;96145.13;4743718;30;20132;-56
2022/06/10 01:36:45;;;;;;;10.45;7.55;;;;;;;15.99;100.00;96150.53;4727391;30;20513;-56
2022/06/10 01:39:14;;;;;;;13.25;6.82;;;;;;;16.12;100.00;96151.47;4743545;30;20067;-57
2022/06/10 01:41:44;;;;;;;9.98;6.90;;;;;;;16.05;100.00;96154.38;4742008;30;20478;-59
2022/06/10 01:44:23;;;;;;;12.02;7.03;;;;;;;15.51;100.00;96116.66;4743655;30;20082;-57
2022/06/10 01:47:09;;;;;;;8.23;7.15;;;;;;;15.89;100.00;96157.88;4742930;30;20079;-55
2022/06/10 01:49:47;;;;;;;9.23;6.97;;;;;;;16.04;100.00;96158.41;4742044;30;20064;-56
2022/06/10 01:52:20;;;;;;;8.70;6.78;;;;;;;15.63;100.00;96088.94;4743049;30;20064;-57
2022/06/10 01:55:14;;;;;;;10.50;6.93;;;;;;;16.06;100.00;96156.00;4743290;30;20577;-56
2022/06/10 01:58:09;;;;;;;11.38;7.80;;;;;;;16.06;100.00;96156.75;4743509;30;20075;-58
2022/06/10 02:00:41;;;;;;;11.57;6.88;;;;;;;16.05;100.00;96159.97;4741504;30;20509;-56
2022/06/10 02:03:34;;;;;;;9.30;7.53;;;;;;;16.18;100.00;96161.75;4743515;30;20126;-56
2022/06/10 02:06:06;;;;;;;18.65;9.43;;;;;;;16.24;100.00;96148.84;4740383;30;20083;-56
2022/06/10 02:08:40;;;;;;;12.52;8.70;;;;;;;16.28;100.00;96152.34;4742072;30;20072;-56
2022/06/10 02:11:13;;;;;;;18.55;8.18;;;;;;;16.17;100.00;96162.94;4726955;30;20704;-56
2022/06/10 02:14:28;;;;;;;16.07;8.23;;;;;;;16.26;100.00;96163.19;4727341;30;20067;-56
2022/06/10 02:16:56;;;;;;;11.32;7.75;;;;;;;16.31;100.00;96161.88;4741103;30;20118;-56
2022/06/10 02:19:30;;;;;;;15.63;8.45;;;;;;;16.41;100.00;96161.66;4745675;30;20076;-56
2022/06/10 02:22:04;;;;;;;13.38;7.82;;;;;;;16.41;100.00;96155.28;4745168;30;20076;-58
2022/06/10 02:24:45;;;;;;;14.13;7.80;;;;;;;16.32;100.00;96169.03;4746329;30;20525;-57
2022/06/10 02:27:18;;;;;;;14.38;7.88;;;;;;;16.32;100.00;96164.25;4746724;30;20509;-58
2022/06/10 02:29:55;;;;;;;12.63;7.43;;;;;;;16.49;100.00;96179.91;4746239;30;20075;-56
2022/06/10 02:32:26;;;;;;;9.70;7.78;;;;;;;16.22;100.00;96120.53;4745220;30;20083;-58
2022/06/10 02:34:54;;;;;;;11.35;7.85;;;;;;;16.02;100.00;96111.34;4746583;30;20164;-56
2022/06/10 02:37:42;;;;;;;14.23;7.60;;;;;;;16.28;100.00;96185.09;4746558;30;20068;-56
2022/06/10 02:40:17;;;;;;;15.88;8.40;;;;;;;16.34;100.00;96197.38;4745264;30;20075;-56
2022/06/10 02:42:53;;;;;;;11.38;7.63;;;;;;;16.47;100.00;96192.75;4746157;30;20060;-57
2022/06/10 02:45:49;;;;;;;12.68;7.43;;;;;;;16.54;100.00;96203.78;4750722;30;20494;-56
2022/06/10 02:48:35;;;;;;;10.57;7.18;;;;;;;16.50;100.00;96203.84;4739742;30;20064;-56
2022/06/10 02:51:02;;;;;;;18.83;8.27;;;;;;;16.46;100.00;96203.13;4744693;30;20064;-56
2022/06/10 02:53:29;;;;;;;8.93;6.97;;;;;;;16.46;100.00;96207.94;4746601;30;20116;-58
2022/06/10 02:55:55;;;;;;;11.35;7.15;;;;;;;15.94;100.00;96137.84;4746017;30;20068;-56
2022/06/10 03:01:20;;;;;;;11.93;7.90;;;;;;;16.53;100.00;96205.00;4745840;30;20067;-56
2022/06/10 03:04:32;;;;;;;12.80;7.50;;;;;;;16.59;100.00;96204.09;4744850;30;20067;-57
2022/06/10 03:07:10;;;;;;;12.80;8.43;;;;;;;16.38;100.00;96207.25;4729473;30;20064;-56
2022/06/10 03:10:01;;;;;;;12.23;7.38;;;;;;;16.43;100.00;96215.16;4746046;30;20083;-56
2022/06/10 03:12:33;;;;;;;12.73;8.27;;;;;;;16.40;100.00;96226.41;4745921;30;20075;-57
2022/06/10 03:15:12;;;;;;;13.75;9.02;;;;;;;16.37;100.00;96222.47;4745603;30;20595;-56
2022/06/10 03:17:47;;;;;;;15.00;9.10;;;;;;;16.29;100.00;96217.41;4745915;30;20067;-59
2022/06/10 03:20:39;;;;;;;12.65;8.48;;;;;;;15.89;100.00;96219.31;4746124;30;20068;-57
2022/06/10 03:23:25;;;;;;;13.00;8.45;;;;;;;16.11;100.00;96231.72;4745808;30;20068;-56
2022/06/10 03:25:58;;;;;;;12.30;9.05;;;;;;;16.19;100.00;96221.97;4744258;30;20498;-55
2022/06/10 03:28:38;;;;;;;10.10;8.20;;;;;;;15.59;100.00;96116.13;4745930;30;20060;-57
2022/06/10 03:31:16;;;;;;;15.02;8.48;;;;;;;16.18;100.00;96209.25;4743779;30;20551;-56
2022/06/10 03:33:45;;;;;;;17.10;8.27;;;;;;;16.21;100.00;96229.94;4744335;30;20461;-56
2022/06/10 03:36:16;;;;;;;14.85;8.35;;;;;;;15.84;100.00;96222.59;4744926;30;20071;-56
2022/06/10 03:38:46;;;;;;;13.32;9.13;;;;;;;15.77;100.00;96222.72;4729513;30;20069;-56
2022/06/10 03:41:21;;;;;;;10.57;7.68;;;;;;;15.60;100.00;96223.78;4745018;30;20064;-56
2022/06/10 03:43:49;;;;;;;13.38;9.20;;;;;;;15.75;100.00;96213.97;4743977;30;20059;-56
2022/06/10 03:46:18;;;;;;;13.43;9.52;;;;;;;15.85;100.00;96207.44;4745078;30;20071;-56
2022/06/10 03:48:47;;;;;;;13.93;9.30;;;;;;;16.18;100.00;96220.41;4745597;30;20064;-57
2022/06/10 03:51:15;;;;;;;20.30;8.55;;;;;;;16.40;100.00;96209.63;4743472;30;20444;-58
2022/06/10 03:53:42;;;;;;;13.23;8.05;;;;;;;16.31;100.00;96199.00;4745589;30;20494;-56
2022/06/10 03:56:10;;;;;;;9.27;7.78;;;;;;;16.16;100.00;96189.31;4729256;30;20109;-57
2022/06/10 03:58:38;;;;;;;12.52;8.75;;;;;;;15.91;100.00;96155.47;4745534;30;20090;-58
2022/06/10 04:01:06;;;;;;;18.23;10.73;;;;;;;16.06;100.00;96184.69;4745079;30;20107;-58
2022/06/10 04:03:33;;;;;;;12.57;9.15;;;;;;;16.17;100.00;96213.22;4745537;30;20088;-56
2022/06/10 04:06:00;;;;;;;13.60;9.23;;;;;;;16.33;100.00;96227.31;4745017;30;20464;-56
2022/06/10 04:08:47;;;;;;;12.00;8.65;;;;;;;16.34;100.00;96242.09;4743843;30;20064;-57
2022/06/10 04:11:13;;;;;;;10.15;9.05;;;;;;;16.21;100.00;96222.34;4744907;30;20068;-56
2022/06/10 04:13:40;;;;;;;14.98;7.90;;;;;;;16.28;100.00;96241.78;4745174;30;20060;-56
2022/06/10 04:16:07;;;;;;;10.75;8.57;;;;;;;16.30;100.00;96250.53;4744917;30;20056;-56
2022/06/10 04:18:33;;;;;;;12.80;8.88;;;;;;;16.02;100.00;96209.13;4744655;30;20070;-57
2022/06/10 04:21:00;;;;;;;13.85;8.90;;;;;;;16.44;100.00;96252.25;4744907;30;20535;-56
2022/06/10 04:23:27;;;;;;;12.95;8.07;;;;;;;16.60;100.00;96250.41;4745018;30;20052;-57
2022/06/10 04:25:53;;;;;;;15.75;9.50;;;;;;;16.64;100.00;96248.31;4744512;30;20075;-58
2022/06/10 04:28:20;;;;;;;11.48;9.05;;;;;;;16.69;100.00;96207.09;4744746;30;20068;-55
2022/06/10 04:30:51;;;;;;;12.73;8.25;;;;;;;17.06;100.00;96240.28;4757307;30;20540;-56
2022/06/10 04:33:19;;;;;;;14.98;8.38;;;;;;;17.11;100.00;96243.38;4744544;30;20063;-57
2022/06/10 04:35:49;;;;;;;14.60;8.65;;;;;;;17.22;100.00;96234.72;4744091;30;20068;-59
2022/06/10 04:38:19;;;;;;;11.65;8.18;;;;;;;17.50;100.00;96248.13;4744421;30;20797;-56
2022/06/10 04:40:47;;;;;;;11.13;7.97;;;;;;;17.28;100.00;96179.81;4744374;30;20060;-55
2022/06/10 04:43:14;;;;;;;10.45;7.80;;;;;;;17.91;100.00;96253.94;4744458;30;20071;-56
2022/06/10 04:45:45;;;;;;;10.30;7.60;;;;;;;17.95;100.00;96251.88;4744132;30;20075;-56
2022/06/10 04:48:13;;;;;;;14.02;8.02;;;;;;;18.15;100.00;96246.94;4744201;30;20537;-56
2022/06/10 04:50:41;;;;;;;10.63;8.23;;;;;;;18.36;100.00;96259.63;4744031;30;20064;-60
2022/06/10 04:53:08;;;;;;;13.68;8.52;;;;;;;18.50;100.00;96236.84;4744457;30;20060;-60
2022/06/10 04:55:35;;;;;;;13.48;8.13;;;;;;;18.49;100.00;96224.88;4744303;30;20599;-60
2022/06/10 04:58:03;;;;;;;10.65;7.95;;;;;;;18.92;97.16;96250.50;4743461;30;20098;-56
2022/06/10 05:00:45;;;;;;;11.30;7.63;;;;;;;19.26;94.35;96256.34;4744206;30;20063;-58
2022/06/10 05:03:12;;;;;;;11.10;7.05;;;;;;;19.45;92.63;96269.44;4743916;30;20086;-58
2022/06/10 05:05:39;;;;;;;10.77;7.25;;;;;;;19.53;89.81;96267.19;4743737;30;20563;-59
2022/06/10 05:08:08;;;;;;;10.85;7.53;;;;;;;19.48;90.12;96262.91;4743991;30;20091;-60
2022/06/10 05:10:36;;;;;;;11.20;6.55;;;;;;;19.51;89.46;96266.84;4743771;30;20075;-60
2022/06/10 05:13:03;;;;;;;12.88;8.00;;;;;;;19.08;93.70;96267.28;4728098;30;20071;-61
2022/06/10 05:15:30;;;;;;;16.00;8.35;;;;;;;18.94;96.78;96261.28;4728062;30;20491;-60
2022/06/10 05:17:58;;;;;;;8.43;7.53;;;;;;;18.99;96.75;96241.88;4743803;30;20490;-60
2022/06/10 05:20:31;;;;;;;15.05;9.27;;;;;;;19.71;91.67;96261.03;4743625;30;20068;-59
2022/06/10 05:22:58;;;;;;;14.55;8.07;;;;;;;19.95;89.56;96267.91;4743395;30;20532;-61
2022/06/10 05:25:25;;;;;;;11.95;8.15;;;;;;;19.02;93.14;96251.44;4743573;30;20600;-61
2022/06/10 05:27:51;;;;;;;16.40;8.57;;;;;;;18.88;95.33;96229.38;4727484;30;20414;-60
2022/06/10 05:30:23;;;;;;;9.63;8.43;;;;;;;19.60;92.56;96264.16;4743681;30;20097;-59
2022/06/10 05:32:51;;;;;;;8.85;7.85;;;;;;;18.94;91.35;96149.81;4743492;30;20092;-60
2022/06/10 05:35:18;;;;;;;12.27;9.23;;;;;;;19.02;96.13;96246.59;4727298;30;20064;-59
2022/06/10 05:37:46;;;;;;;13.88;9.13;;;;;;;19.12;93.81;96231.50;4743341;30;20491;-59
2022/06/10 05:40:22;;;;;;;12.07;9.75;;;;;;;19.84;92.58;96270.25;4728017;30;20064;-60
2022/06/10 05:42:50;;;;;;;14.52;10.48;;;;;;;19.15;94.37;96267.09;4727442;30;20067;-59
2022/06/10 05:45:18;;;;;;;16.55;12.00;;;;;;;18.54;100.00;96272.00;4743319;30;20079;-59
2022/06/10 05:47:48;;;;;;;16.88;11.75;;;;;;;19.13;98.54;96275.16;4743651;30;20515;-61
2022/06/10 05:50:34;;;;;;;19.77;12.38;;;;;;;19.13;97.69;96275.16;4743143;30;20075;-61
2022/06/10 05:53:04;;;;;;;20.48;13.52;;;;;;;19.45;93.64;96275.06;4743018;30;20147;-60
2022/06/10 05:55:32;;;;;;;19.75;13.40;;;;;;;19.67;93.72;96275.19;4727152;30;20452;-60
2022/06/10 05:58:06;;;;;;;15.93;12.50;;;;;;;19.86;92.65;96260.13;4743231;30;20143;-60
2022/06/10 06:00:32;;;;;;;18.10;11.90;;;;;;;18.98;95.61;96285.22;4743023;30;20075;-61
2022/06/10 06:02:59;;;;;;;19.92;12.45;;;;;;;19.58;93.69;96277.09;4743181;30;20456;-61
2022/06/10 06:05:28;;;;;;;20.13;11.93;;;;;;;19.91;90.18;96275.66;4743041;30;20060;-61
2022/06/10 06:07:55;;;;;;;14.55;11.70;;;;;;;20.34;88.71;96278.69;4730776;30;21888;-62
2022/06/10 06:10:24;;;;;;;14.60;11.70;;;;;;;20.70;87.23;96284.66;4739459;30;20059;-61
2022/06/10 06:12:51;;;;;;;15.23;10.85;;;;;;;20.47;88.07;96282.28;4748926;30;20056;-55
2022/06/10 06:15:18;;;;;;;16.17;11.77;;;;;;;19.98;91.92;96283.88;4743691;30;20056;-57
2022/06/10 06:17:48;;;;;;;15.10;11.63;;;;;;;20.30;90.08;96252.69;4741444;30;20467;-59
2022/06/10 06:20:15;;;;;;;14.50;11.27;;;;;;;20.90;87.36;96282.34;4726745;30;20638;-58
2022/06/10 06:22:42;;;;;;;13.98;10.40;;;;;;;21.19;85.16;96265.22;4742587;30;20855;-56
2022/06/10 06:25:15;;;;;;;11.65;9.48;;;;;;;21.57;84.32;96275.06;4742827;30;20073;-58
2022/06/10 06:27:44;;;;;;;11.15;9.75;;;;;;;22.07;83.38;96290.81;4726940;30;20147;-63
2022/06/10 06:30:26;;;;;;;10.65;9.38;;;;;;;22.07;79.40;96291.63;4742507;30;20067;-62
2022/06/10 06:32:54;;;;;;;12.50;8.77;;;;;;;22.21;79.08;96293.88;4741513;30;20155;-59
2022/06/10 06:35:21;;;;;;;11.43;9.73;;;;;;;22.36;77.68;96277.94;4740591;30;20110;-54
2022/06/10 06:37:48;;;;;;;14.90;11.40;;;;;;;22.69;76.28;96274.56;4755910;30;20064;-57
2022/06/10 06:40:15;;;;;;;20.27;12.35;;;;;;;23.02;75.12;96286.84;4756569;30;20074;-59
2022/06/10 06:42:41;;;;;;;14.55;11.85;;;;;;;22.70;73.59;96199.91;4760341;30;20068;-58
2022/06/10 06:45:10;;;;;;;20.13;12.52;;;;;;;21.46;72.95;95998.50;4760415;30;20116;-58
2022/06/10 06:47:48;;;;;;;21.10;12.55;;;;;;;23.76;71.44;96289.94;4747082;30;20063;-58
2022/06/10 06:50:18;;;;;;;18.98;13.48;;;;;;;23.65;71.70;96284.00;4746004;30;20064;-57
2022/06/10 06:52:44;;;;;;;22.13;15.23;;;;;;;23.38;70.09;96241.63;4757306;30;20443;-57
2022/06/10 06:55:11;;;;;;;20.00;13.48;;;;;;;23.49;70.45;96284.34;4744591;30;20493;-56
2022/06/10 06:57:38;;;;;;;18.55;14.73;;;;;;;24.05;69.42;96284.53;4742335;30;20060;-57
2022/06/10 07:00:06;;;;;;;19.13;14.55;;;;;;;23.93;69.09;96294.00;4752560;30;20063;-60
2022/06/10 07:02:34;;;;;;;23.25;14.75;;;;;;;24.04;69.99;96280.16;4751709;30;20611;-56
2022/06/10 07:05:02;;;;;;;18.05;13.98;;;;;;;24.27;68.74;96287.91;4748311;30;20059;-58
2022/06/10 07:07:29;;;;;;;17.63;13.27;;;;;;;23.96;67.26;96225.13;4753845;30;20075;-55
2022/06/10 07:09:56;;;;;;;16.85;13.32;;;;;;;24.11;68.72;96260.00;4755995;30;20059;-59
2022/06/10 07:12:23;;;;;;;17.15;12.43;;;;;;;24.43;67.72;96281.84;4756331;30;20067;-58
2022/06/10 07:14:50;;;;;;;15.15;12.98;;;;;;;24.72;66.73;96282.00;4760263;30;20457;-59
2022/06/10 07:17:17;;;;;;;18.38;14.23;;;;;;;23.70;68.37;96167.41;4748037;29;20060;-59
2022/06/10 07:19:48;;;;;;;17.73;12.27;;;;;;;24.02;68.27;96231.72;4757384;30;20064;-60
2022/06/10 07:22:15;;;;;;;18.00;13.50;;;;;;;24.49;67.36;96268.59;4731156;30;20149;-60
2022/06/10 07:24:43;;;;;;;16.80;12.95;;;;;;;24.54;67.88;96289.81;4753547;30;20417;-59
2022/06/10 07:27:10;;;;;;;18.98;13.18;;;;;;;24.06;68.26;96274.78;4762984;30;20538;-57
2022/06/10 07:29:37;;;;;;;19.77;13.75;;;;;;;24.16;69.05;96272.69;4753679;30;20092;-56
2022/06/10 07:32:04;;;;;;;19.33;13.88;;;;;;;24.44;68.56;96289.06;4745263;30;20060;-59
2022/06/10 07:34:31;;;;;;;19.25;14.45;;;;;;;24.13;69.41;96280.13;4755736;30;20447;-58
2022/06/10 07:36:58;;;;;;;18.50;14.70;;;;;;;23.75;71.07;96288.38;4754854;30;20071;-58
2022/06/10 07:39:25;;;;;;;20.05;14.43;;;;;;;24.34;69.57;96290.41;4757802;30;20072;-58
2022/06/10 07:42:00;;;;;;;16.95;13.48;;;;;;;24.87;67.16;96299.88;4761202;30;20583;-61
2022/06/10 07:44:34;;;;;;;18.52;14.35;;;;;;;25.17;66.35;96278.88;4743069;30;20095;-60
2022/06/10 07:47:07;;;;;;;18.30;13.88;;;;;;;25.16;66.75;96277.31;4756601;30;20060;-58
2022/06/10 07:49:34;;;;;;;26.63;13.77;;;;;;;24.64;66.95;96280.81;4755859;30;20739;-59
2022/06/10 07:52:01;;;;;;;20.50;14.35;;;;;;;24.32;68.63;96256.13;4756835;30;20056;-57
2022/06/10 07:54:27;;;;;;;18.38;14.55;;;;;;;22.81;72.81;96248.25;4762653;30;20063;-58
2022/06/10 07:56:54;;;;;;;21.88;14.68;;;;;;;23.23;72.80;96223.72;4759116;30;20063;-61
2022/06/10 07:59:21;;;;;;;21.02;14.18;;;;;;;24.04;69.89;96277.31;4757939;30;20497;-57
2022/06/10 08:01:48;;;;;;;22.40;14.43;;;;;;;24.77;68.68;96272.84;4751714;30;20607;-59
2022/06/10 08:04:15;;;;;;;22.02;15.02;;;;;;;25.13;66.57;96255.56;4750757;30;20074;-57
2022/06/10 08:06:46;;;;;;;23.30;14.95;;;;;;;25.95;64.06;96286.03;4761980;30;20098;-60
2022/06/10 08:09:16;;;;;;;16.88;12.48;;;;;;;25.92;62.88;96289.84;4748409;30;20607;-57
2022/06/10 08:11:43;;;;;;;17.23;13.13;;;;;;;25.56;63.75;96261.84;4761930;30;20094;-55
2022/06/10 08:14:10;;;;;;;17.63;13.27;;;;;;;25.54;64.04;96272.91;4761837;30;20052;-62
2022/06/10 08:16:37;;;;;;;18.33;14.05;;;;;;;25.59;64.55;96303.41;4762633;30;20063;-59
2022/06/10 08:19:04;;;;;;;24.40;15.95;;;;;;;25.23;66.78;96305.28;4746486;30;20060;-64
2022/06/10 08:24:19;;;;;;;25.13;15.90;;;;;;;25.34;67.21;96298.31;4752540;30;20076;-64
2022/06/10 08:26:47;;;;;;;23.30;16.17;;;;;;;25.13;66.38;96289.59;4742259;30;20247;-63
2022/06/10 08:29:17;;;;;;;22.85;15.80;;;;;;;23.46;70.57;96310.72;4755049;30;20063;-61
2022/06/10 08:31:44;;;;;;;24.42;15.70;;;;;;;23.10;71.70;96316.34;4755378;30;20060;-57
2022/06/10 08:34:11;;;;;;;27.40;19.60;;;;;;;23.72;73.28;96312.75;4756203;30;20075;-60
2022/06/10 08:36:38;;;;;;;32.15;21.13;;;;;;;23.58;70.07;96261.72;4756093;30;20070;-56
2022/06/10 08:39:05;;;;;;;28.63;19.77;;;;;;;23.73;70.98;96325.63;4760372;30;20071;-58
2022/06/10 08:41:38;;;;;;;27.85;20.45;;;;;;;23.82;71.30;96327.66;4749759;30;20051;-61
2022/06/10 08:44:29;;;;;;;27.92;19.70;;;;;;;23.96;71.11;96331.84;4759112;30;20539;-62
2022/06/10 08:47:18;;;;;;;24.40;18.20;;;;;;;23.81;71.24;96328.91;4751011;30;20070;-58
2022/06/10 08:50:15;;;;;;;25.98;18.60;;;;;;;23.53;73.63;96328.16;4753911;30;20090;-60
2022/06/10 08:52:51;;;;;;;27.02;19.80;;;;;;;23.42;76.52;96327.88;4748831;30;20468;-56
2022/06/10 08:55:20;;;;;;;27.13;19.38;;;;;;;23.22;78.13;96324.69;4760583;30;20067;-61
2022/06/10 08:57:48;;;;;;;28.10;20.70;;;;;;;23.18;78.27;96323.28;4761850;30;20237;-56
2022/06/10 09:00:22;;;;;;;27.33;20.65;;;;;;;22.95;78.57;96298.47;4757753;30;20162;-58
2022/06/10 09:03:11;;;;;;;30.05;21.25;;;;;;;23.08;79.16;96341.50;4745169;30;20062;-58
2022/06/10 09:05:43;;;;;;;31.17;21.88;;;;;;;23.26;78.95;96347.97;4733409;30;20064;-57
2022/06/10 09:08:19;;;;;;;33.42;21.60;;;;;;;23.08;77.54;96347.16;4725996;30;20088;-62
2022/06/10 09:10:50;;;;;;;33.58;22.80;;;;;;;22.96;77.25;96348.06;4726076;30;20056;-63
2022/06/10 09:13:39;;;;;;;39.30;25.88;;;;;;;23.19;77.44;96353.88;4726223;30;20079;-60
2022/06/10 09:16:23;;;;;;;29.23;20.20;;;;;;;22.79;77.13;96352.41;4726066;30;20079;-62
2022/06/10 09:18:57;;;;;;;35.08;23.08;;;;;;;22.89;78.41;96339.91;4725352;30;20061;-61
2022/06/10 09:22:05;;;;;;;32.28;22.15;;;;;;;23.47;75.92;96343.41;4730539;30;20073;-60
2022/06/10 09:24:50;;;;;;;32.97;23.63;;;;;;;23.60;74.55;96346.88;4750029;30;20068;-58
2022/06/10 09:27:38;;;;;;;36.50;24.45;;;;;;;23.77;73.30;96342.44;4755752;30;20059;-57
2022/06/10 09:30:09;;;;;;;33.35;22.73;;;;;;;23.89;72.02;96345.09;4745263;30;20075;-55
2022/06/10 09:32:48;;;;;;;31.30;22.02;;;;;;;23.92;71.96;96337.69;4757102;30;20420;-57
2022/06/10 09:35:59;;;;;;;31.27;22.27;;;;;;;24.13;70.64;96336.72;4760365;30;20554;-60
2022/06/10 09:38:52;;;;;;;36.90;24.00;;;;;;;24.23;70.35;96338.25;4752434;30;20439;-59
2022/06/10 09:41:28;;;;;;;40.75;25.20;;;;;;;24.41;68.88;96335.34;4754790;30;20068;-55
2022/06/10 09:44:24;;;;;;;32.88;22.00;;;;;;;24.63;68.63;96335.06;4740303;30;20155;-56
2022/06/10 09:47:00;;;;;;;29.23;20.92;;;;;;;23.52;72.23;96331.47;4751985;30;20075;-56
2022/06/10 09:49:53;;;;;;;33.38;22.73;;;;;;;21.94;72.74;96110.44;4754446;30;20549;-57
2022/06/10 09:52:20;;;;;;;38.75;24.80;;;;;;;23.94;73.02;96323.84;4754455;30;20067;-57
2022/06/10 09:55:26;;;;;;;31.00;21.80;;;;;;;23.83;71.87;96329.22;4738343;30;20059;-56
2022/06/10 09:58:02;;;;;;;36.50;21.90;;;;;;;23.73;71.06;96327.66;4743204;30;20244;-55
2022/06/10 10:01:02;;;;;;;32.60;22.92;;;;;;;24.13;70.16;96322.56;4742440;30;20516;-65
2022/06/10 10:03:43;;;;;;;35.70;24.02;;;;;;;24.34;69.88;96324.38;4743302;30;20577;-59
2022/06/10 10:06:25;;;;;;;31.55;22.27;;;;;;;24.17;69.70;96323.16;4742972;30;20261;-56
2022/06/10 10:09:08;;;;;;;31.38;22.08;;;;;;;23.57;73.49;96322.34;4743058;30;20083;-62
2022/06/10 10:12:05;;;;;;;38.50;26.23;;;;;;;23.67;74.45;96321.06;4751476;30;20064;-58
2022/06/10 10:15:10;;;;;;;34.92;23.58;;;;;;;23.90;72.81;96323.22;4752959;30;20063;-55
2022/06/10 10:17:56;;;;;;;35.13;23.95;;;;;;;24.41;71.03;96312.69;4735069;30;20067;-64
2022/06/10 10:20:42;;;;;;;30.75;21.90;;;;;;;25.36;68.04;96318.44;4753908;30;20072;-64
2022/06/10 10:23:13;;;;;;;34.97;23.65;;;;;;;26.11;65.41;96308.25;4757203;30;20067;-57
2022/06/10 10:25:42;;;;;;;34.25;24.23;;;;;;;26.31;65.57;96319.69;4758825;30;20059;-62
2022/06/10 10:28:20;;;;;;;35.17;23.23;;;;;;;26.29;64.21;96310.88;4751911;30;20068;-61
2022/06/10 10:31:09;;;;;;;37.60;24.52;;;;;;;26.55;62.20;96311.81;4738895;30;20075;-60
2022/06/10 10:33:36;;;;;;;30.55;23.15;;;;;;;25.19;65.08;96248.00;4753750;30;20193;-61
2022/06/10 10:36:12;;;;;;;37.50;26.70;;;;;;;24.51;70.59;96317.06;4739431;30;20351;-62
2022/06/10 10:38:43;;;;;;;37.70;26.23;;;;;;;25.08;67.21;96304.47;4755732;30;20155;-58
2022/06/10 10:41:29;;;;;;;41.75;27.15;;;;;;;25.06;66.59;96272.97;4754957;30;20113;-61
2022/06/10 10:44:00;;;;;;;39.50;24.73;;;;;;;25.30;65.12;96307.75;4741599;30;20109;-54
2022/06/10 10:46:37;;;;;;;29.73;22.90;;;;;;;25.31;63.50;96300.00;4755689;30;20091;-61
2022/06/10 10:49:24;;;;;;;32.13;24.15;;;;;;;24.33;67.34;96310.69;4737242;30;20436;-63
2022/06/10 10:51:52;;;;;;;33.15;23.70;;;;;;;23.99;68.41;96309.09;4759636;30;20095;-60
2022/06/10 10:54:33;;;;;;;32.25;23.92;;;;;;;24.55;68.00;96306.31;4755400;30;20068;-61
2022/06/10 10:57:01;;;;;;;30.45;22.02;;;;;;;24.73;65.19;96294.94;4755235;30;20745;-56
2022/06/10 10:59:35;;;;;;;31.33;22.88;;;;;;;24.27;67.98;96290.75;4759723;30;20064;-63
2022/06/10 11:02:31;;;;;;;30.50;23.30;;;;;;;24.38;66.46;96279.69;4738508;30;20067;-67
2022/06/10 11:05:24;;;;;;;35.90;26.42;;;;;;;24.61;67.79;96281.75;4752347;30;20071;-56
2022/06/10 11:08:30;;;;;;;32.92;26.75;;;;;;;25.09;66.40;96277.66;4755019;30;20089;-61
2022/06/10 11:11:06;;;;;;;36.03;26.52;;;;;;;25.50;63.90;96272.31;4756573;30;20064;-55
2022/06/10 11:13:44;;;;;;;34.80;26.23;;;;;;;24.83;65.79;96276.59;4752608;30;20071;-61
2022/06/10 11:16:23;;;;;;;35.00;25.48;;;;;;;25.46;63.57;96269.66;4758449;30;20052;-57
2022/06/10 11:18:52;;;;;;;27.88;21.73;;;;;;;26.27;60.40;96256.66;4757607;30;20126;-60
2022/06/10 11:21:23;;;;;;;32.38;23.38;;;;;;;26.67;58.30;96268.91;4745168;30;20067;-57
2022/06/10 11:23:52;;;;;;;25.58;20.33;;;;;;;26.81;57.90;96269.34;4745069;30;20519;-59
2022/06/10 11:26:22;;;;;;;26.80;20.83;;;;;;;26.94;55.95;96236.44;4746619;30;20114;-59
2022/06/10 11:28:59;;;;;;;27.52;22.88;;;;;;;25.08;58.02;96066.38;4744980;30;20056;-56
2022/06/10 11:31:38;;;;;;;28.65;22.80;;;;;;;25.24;61.54;96216.09;4738085;30;20096;-54
2022/06/10 11:34:21;;;;;;;35.88;24.52;;;;;;;26.17;61.33;96255.19;4741160;30;20056;-57
2022/06/10 11:36:53;;;;;;;32.40;24.45;;;;;;;26.97;58.77;96246.81;4755452;30;20078;-54
2022/06/10 11:39:25;;;;;;;29.77;23.45;;;;;;;26.70;59.21;96247.22;4754946;30;20074;-55
2022/06/10 11:41:58;;;;;;;28.30;22.52;;;;;;;27.06;58.51;96238.16;4743723;30;20067;-56
2022/06/10 11:44:27;;;;;;;29.30;23.48;;;;;;;27.32;58.52;96244.69;4756207;30;20066;-61
2022/06/10 11:47:26;;;;;;;28.10;21.60;;;;;;;27.79;54.49;96241.28;4762238;30;20071;-62
2022/06/10 11:50:01;;;;;;;28.23;22.23;;;;;;;27.97;54.04;96225.94;4758473;30;20329;-62
2022/06/10 11:52:35;;;;;;;27.50;21.58;;;;;;;27.55;54.33;96166.03;4761953;30;20078;-61
2022/06/10 11:55:10;;;;;;;27.05;21.70;;;;;;;27.87;55.52;96238.75;4762578;30;20064;-61
2022/06/10 12:00:41;;;;;;;26.17;19.90;;;;;;;28.14;53.40;96236.19;4762431;30;20066;-61